Time;durP1;ratioP1;P1;durP2;ratioP2;P2;SDS_P1;SDS_P2;PMS_P1;PMS_P2;Temp;Humidity;BMP_temperature;BMP_pressure;BME280_temperature;BME280_humidity;BME280_pressure;Samples;Min_cycle;Max_cycle;Signal;HPM_P1;HPM_P2
2022/10/30 00:00:50;;;;;;;8.37;4.87;;;17.60;99.00;;;;;;6194797;23;21030;-83
2022/10/30 00:03:17;;;;;;;6.37;4.43;;;17.60;98.90;;;;;;6207020;23;20505;-83
2022/10/30 00:05:45;;;;;;;6.23;4.10;;;17.50;98.80;;;;;;6197267;23;20428;-83
2022/10/30 00:08:13;;;;;;;6.93;4.37;;;17.50;98.90;;;;;;6197075;23;20436;-83
2022/10/30 00:10:40;;;;;;;11.90;5.80;;;17.60;98.80;;;;;;6198477;23;20499;-83
2022/10/30 00:13:09;;;;;;;4.37;3.60;;;17.60;98.70;;;;;;6198264;23;20496;-84
2022/10/30 00:15:36;;;;;;;6.43;5.67;;;17.70;98.80;;;;;;6197180;23;20453;-83
2022/10/30 00:18:03;;;;;;;12.10;6.20;;;17.70;98.70;;;;;;6197307;23;20422;-83
2022/10/30 00:20:30;;;;;;;6.47;4.30;;;17.70;98.80;;;;;;6198717;23;20436;-83
2022/10/30 00:22:57;;;;;;;5.93;5.27;;;17.70;98.80;;;;;;6198153;23;20727;-83
2022/10/30 00:25:24;;;;;;;9.77;5.00;;;17.70;98.90;;;;;;6196717;23;20439;-83
2022/10/30 00:27:50;;;;;;;8.67;4.90;;;17.70;99.00;;;;;;6198663;23;20413;-83
2022/10/30 00:30:18;;;;;;;6.60;4.50;;;17.60;98.70;;;;;;6197735;23;20435;-83
2022/10/30 00:32:45;;;;;;;6.90;3.97;;;17.70;98.70;;;;;;6197533;23;20411;-83
2022/10/30 00:35:12;;;;;;;6.43;4.30;;;17.70;98.80;;;;;;6196887;23;20504;-83
2022/10/30 00:37:39;;;;;;;7.40;4.50;;;17.60;98.90;;;;;;6197532;23;20408;-83
2022/10/30 00:40:07;;;;;;;8.23;3.50;;;17.60;99.00;;;;;;6197080;23;20473;-84
2022/10/30 00:42:34;;;;;;;9.83;4.93;;;17.60;99.00;;;;;;6194651;23;20487;-82
2022/10/30 00:45:01;;;;;;;6.80;3.80;;;17.60;99.00;;;;;;6194089;23;20963;-86
2022/10/30 00:47:33;;;;;;;7.77;5.23;;;17.60;99.10;;;;;;6192398;23;20412;-84
2022/10/30 00:50:05;;;;;;;4.90;4.40;;;17.60;99.00;;;;;;6192151;23;20392;-86
2022/10/30 00:52:36;;;;;;;7.23;3.97;;;17.60;98.80;;;;;;6192099;23;20397;-85
2022/10/30 00:55:07;;;;;;;5.57;3.53;;;17.60;98.80;;;;;;6192662;23;20428;-85
2022/10/30 00:57:35;;;;;;;6.00;4.13;;;17.60;98.50;;;;;;6203243;23;20377;-81
2022/10/30 01:00:03;;;;;;;7.30;5.17;;;17.60;98.50;;;;;;6191929;23;20436;-83
2022/10/30 01:02:32;;;;;;;5.67;4.03;;;17.60;98.40;;;;;;6186017;23;20421;-82
2022/10/30 01:04:59;;;;;;;6.70;5.30;;;17.70;98.50;;;;;;6186235;23;20463;-84
2022/10/30 01:07:26;;;;;;;5.63;3.53;;;17.60;98.40;;;;;;6185869;23;20408;-84
2022/10/30 01:09:53;;;;;;;9.20;4.77;;;17.60;98.30;;;;;;6186480;23;20415;-85
2022/10/30 01:12:20;;;;;;;8.13;5.13;;;17.70;98.40;;;;;;6186342;23;20424;-85
2022/10/30 01:14:52;;;;;;;13.33;6.33;;;17.70;98.40;;;;;;6185652;23;20436;-82
2022/10/30 01:17:53;;;;;;;7.77;4.13;;;17.70;98.40;;;;;;6186066;23;20688;-84
2022/10/30 01:20:39;;;;;;;14.33;4.90;;;17.70;98.50;;;;;;6180113;23;20428;-84
2022/10/30 01:23:20;;;;;;;6.23;5.60;;;17.70;98.40;;;;;;6186451;23;20397;-84
2022/10/30 01:25:56;;;;;;;3.47;2.83;;;17.60;98.30;;;;;;6185280;23;20452;-83
2022/10/30 01:28:44;;;;;;;12.20;4.67;;;17.60;98.30;;;;;;6185468;23;20393;-82
2022/10/30 01:31:24;;;;;;;11.77;4.67;;;17.60;98.50;;;;;;6185332;23;20720;-84
2022/10/30 01:34:05;;;;;;;5.83;3.40;;;17.60;99.00;;;;;;6185893;23;20397;-83
2022/10/30 01:36:38;;;;;;;4.90;4.10;;;17.50;99.10;;;;;;6185705;23;20756;-84
2022/10/30 01:39:10;;;;;;;5.57;5.03;;;17.50;99.90;;;;;;6185167;23;20397;-83
2022/10/30 01:41:37;;;;;;;7.43;6.73;;;17.40;99.90;;;;;;6186813;23;20398;-83
2022/10/30 01:44:08;;;;;;;9.93;7.07;;;17.30;99.90;;;;;;6187465;23;20922;-82
2022/10/30 01:46:47;;;;;;;9.73;7.27;;;17.20;99.90;;;;;;6187187;23;20448;-84
2022/10/30 01:49:49;;;;;;;9.47;6.70;;;17.20;99.90;;;;;;6186891;23;20411;-83
2022/10/30 01:52:22;;;;;;;9.90;7.30;;;17.00;99.90;;;;;;6125539;23;20412;-84
2022/10/30 01:54:58;;;;;;;12.63;7.00;;;17.00;99.90;;;;;;6186881;23;20435;-84
2022/10/30 01:57:34;;;;;;;9.03;7.17;;;16.90;99.90;;;;;;6187226;23;20871;-83
2022/10/30 02:00:05;;;;;;;8.70;6.60;;;16.80;99.90;;;;;;6187083;23;20406;-85
2022/10/30 02:02:32;;;;;;;11.43;7.00;;;16.70;99.90;;;;;;6187141;23;20397;-83
2022/10/30 02:05:01;;;;;;;12.13;7.33;;;16.70;99.90;;;;;;6187360;23;20509;-84
2022/10/30 02:07:28;;;;;;;7.70;6.60;;;16.60;99.90;;;;;;6187293;23;20416;-83
2022/10/30 02:09:55;;;;;;;11.70;7.70;;;16.50;99.90;;;;;;6186750;23;20408;-84
2022/10/30 02:12:23;;;;;;;8.40;6.97;;;16.50;99.90;;;;;;6187365;23;20413;-82
2022/10/30 02:14:54;;;;;;;11.33;7.20;;;16.40;99.90;;;;;;6187189;23;20441;-83
2022/10/30 02:17:21;;;;;;;8.00;6.47;;;16.30;99.90;;;;;;6187214;23;20400;-83
2022/10/30 02:19:48;;;;;;;9.10;6.83;;;16.20;99.90;;;;;;6187075;23;20781;-82
2022/10/30 02:22:17;;;;;;;12.50;7.07;;;16.20;99.90;;;;;;6187546;23;20410;-83
2022/10/30 02:24:45;;;;;;;12.30;6.53;;;16.10;99.90;;;;;;6187300;23;20431;-83
2022/10/30 02:27:12;;;;;;;8.27;7.37;;;16.10;99.90;;;;;;6187501;23;20449;-85
2022/10/30 02:29:38;;;;;;;7.93;7.13;;;16.00;99.90;;;;;;6186711;23;20414;-83
2022/10/30 02:32:05;;;;;;;8.67;7.40;;;16.00;99.90;;;;;;6187153;23;20410;-83
2022/10/30 02:34:32;;;;;;;8.43;6.80;;;16.00;99.90;;;;;;6186672;23;20438;-84
2022/10/30 02:36:59;;;;;;;11.50;7.13;;;15.90;99.90;;;;;;6187278;23;20415;-84
2022/10/30 02:39:27;;;;;;;14.63;7.73;;;15.90;99.90;;;;;;6187163;23;20411;-84
2022/10/30 02:41:53;;;;;;;11.17;7.40;;;15.90;99.90;;;;;;6187940;23;20414;-84
2022/10/30 02:44:20;;;;;;;9.03;6.90;;;15.90;99.90;;;;;;6187393;23;20795;-84
2022/10/30 02:46:47;;;;;;;8.33;7.37;;;15.80;99.90;;;;;;6187602;23;20439;-83
2022/10/30 02:49:13;;;;;;;7.97;6.87;;;15.80;99.90;;;;;;6187114;23;20410;-84
2022/10/30 02:51:40;;;;;;;14.20;8.03;;;15.80;99.90;;;;;;6187026;23;20406;-84
2022/10/30 02:54:07;;;;;;;9.70;7.20;;;15.80;99.90;;;;;;6187764;23;20418;-82
2022/10/30 02:56:35;;;;;;;9.97;8.37;;;15.70;99.90;;;;;;6187317;23;20409;-85
2022/10/30 02:59:02;;;;;;;13.00;8.23;;;15.70;99.90;;;;;;6187173;23;20412;-83
2022/10/30 03:01:29;;;;;;;9.50;7.60;;;15.60;99.90;;;;;;6187753;23;20407;-84
2022/10/30 03:03:55;;;;;;;10.93;7.83;;;15.60;99.90;;;;;;6187773;23;20431;-82
2022/10/30 03:06:22;;;;;;;8.67;7.87;;;15.60;99.90;;;;;;6187341;23;20452;-83
2022/10/30 03:08:49;;;;;;;11.07;8.20;;;15.50;99.90;;;;;;6191392;23;20742;-85
2022/10/30 03:11:17;;;;;;;10.10;7.10;;;15.50;99.90;;;;;;6192476;23;20407;-83
2022/10/30 03:13:47;;;;;;;8.97;6.97;;;15.40;99.90;;;;;;6192958;23;20410;-85
2022/10/30 03:16:15;;;;;;;9.00;7.57;;;15.40;99.90;;;;;;6193569;23;20958;-84
2022/10/30 03:18:42;;;;;;;12.33;8.07;;;15.40;99.90;;;;;;6193243;23;20410;-85
2022/10/30 03:21:12;;;;;;;11.10;9.10;;;15.30;99.90;;;;;;6192309;23;20416;-85
2022/10/30 03:23:39;;;;;;;10.00;9.00;;;15.20;99.90;;;;;;6193006;23;20421;-85
2022/10/30 03:26:06;;;;;;;10.93;9.83;;;15.20;99.90;;;;;;6192402;23;20770;-85
2022/10/30 03:28:33;;;;;;;14.27;8.90;;;15.20;99.90;;;;;;6192753;23;20415;-85
2022/10/30 03:31:02;;;;;;;9.93;8.93;;;15.10;99.90;;;;;;6192977;23;20476;-85
2022/10/30 03:33:30;;;;;;;10.80;8.30;;;15.10;99.90;;;;;;6192950;23;20414;-84
2022/10/30 03:35:57;;;;;;;10.60;7.97;;;15.00;99.90;;;;;;6193048;23;20768;-83
2022/10/30 03:38:24;;;;;;;9.53;7.90;;;15.00;99.90;;;;;;6192455;23;20417;-85
2022/10/30 03:40:50;;;;;;;10.43;8.87;;;14.90;99.90;;;;;;6192799;23;20420;-83
2022/10/30 03:43:18;;;;;;;10.67;8.27;;;14.90;99.90;;;;;;6192300;23;20417;-85
2022/10/30 03:45:48;;;;;;;12.13;8.27;;;14.90;99.90;;;;;;6192179;23;20504;-85
2022/10/30 03:48:17;;;;;;;11.70;7.60;;;14.80;99.90;;;;;;6192249;23;20476;-84
2022/10/30 03:50:44;;;;;;;11.93;9.83;;;14.80;99.90;;;;;;6192938;23;20417;-85
2022/10/30 03:53:11;;;;;;;12.20;10.00;;;14.70;99.90;;;;;;6192907;23;20416;-85
2022/10/30 03:55:38;;;;;;;10.90;8.13;;;14.50;99.90;;;;;;6193082;23;20438;-85
2022/10/30 03:58:05;;;;;;;9.83;8.40;;;14.50;99.90;;;;;;6192001;23;20410;-85
2022/10/30 04:00:33;;;;;;;10.70;9.70;;;14.50;99.90;;;;;;6192691;23;20931;-85
2022/10/30 04:03:00;;;;;;;9.60;8.00;;;14.50;99.90;;;;;;6192559;23;20431;-85
2022/10/30 04:05:28;;;;;;;11.47;8.03;;;14.50;99.90;;;;;;6192725;23;20433;-84
2022/10/30 04:07:56;;;;;;;13.10;8.33;;;14.50;99.90;;;;;;6190947;23;20421;-84
2022/10/30 04:10:23;;;;;;;9.10;8.20;;;14.40;99.90;;;;;;6192067;23;20477;-86
2022/10/30 04:12:50;;;;;;;7.73;6.70;;;14.40;99.90;;;;;;6192517;23;20488;-85
2022/10/30 04:15:17;;;;;;;7.87;7.07;;;14.40;99.90;;;;;;6192327;23;20434;-85
2022/10/30 04:17:49;;;;;;;8.77;7.90;;;14.40;99.90;;;;;;6192472;23;20412;-85
2022/10/30 04:20:16;;;;;;;8.00;6.70;;;14.30;99.90;;;;;;6192308;23;20454;-85
2022/10/30 04:22:44;;;;;;;11.30;7.57;;;14.20;99.90;;;;;;6191793;23;20410;-85
2022/10/30 04:25:11;;;;;;;8.87;7.97;;;14.20;99.90;;;;;;6191575;23;20440;-85
2022/10/30 04:27:41;;;;;;;10.70;8.07;;;14.10;99.90;;;;;;6192174;23;20766;-83
2022/10/30 04:30:10;;;;;;;8.90;8.00;;;14.10;99.90;;;;;;6191746;23;20432;-85
2022/10/30 04:32:45;;;;;;;9.70;8.70;;;14.10;99.90;;;;;;6191416;23;20413;-85
2022/10/30 04:35:11;;;;;;;9.67;7.20;;;14.00;99.90;;;;;;6191815;23;20971;-85
2022/10/30 04:37:38;;;;;;;8.47;7.67;;;14.10;99.90;;;;;;6190986;23;20402;-81
2022/10/30 04:40:08;;;;;;;9.53;7.13;;;14.00;99.90;;;;;;6192089;23;20418;-85
2022/10/30 04:42:34;;;;;;;13.30;7.80;;;14.00;99.90;;;;;;6192602;23;20420;-84
2022/10/30 04:45:02;;;;;;;9.73;7.73;;;14.00;99.90;;;;;;6191673;23;20442;-85
2022/10/30 04:47:30;;;;;;;11.67;8.83;;;14.00;99.90;;;;;;6192527;23;20821;-84
2022/10/30 04:49:56;;;;;;;9.27;8.47;;;14.00;99.90;;;;;;6191519;23;20406;-85
2022/10/30 04:52:23;;;;;;;9.90;8.90;;;14.00;99.90;;;;;;6192352;23;20411;-84
2022/10/30 04:54:50;;;;;;;12.50;10.67;;;14.00;99.90;;;;;;6191642;23;20429;-85
2022/10/30 04:57:18;;;;;;;10.90;8.83;;;13.90;99.90;;;;;;6191697;23;20412;-83
2022/10/30 04:59:45;;;;;;;13.30;8.37;;;13.90;99.90;;;;;;6193247;23;20413;-83
2022/10/30 05:02:12;;;;;;;8.77;7.97;;;13.90;99.90;;;;;;6193647;23;20406;-85
2022/10/30 05:04:38;;;;;;;11.77;8.27;;;13.90;99.90;;;;;;6193860;23;20426;-86
2022/10/30 05:07:05;;;;;;;11.60;8.00;;;13.90;99.90;;;;;;6191679;23;20770;-84
2022/10/30 05:09:32;;;;;;;8.10;7.30;;;13.80;99.90;;;;;;6190997;23;20413;-85
2022/10/30 05:11:59;;;;;;;8.60;7.90;;;13.80;99.90;;;;;;6192019;23;20410;-83
2022/10/30 05:14:30;;;;;;;11.50;9.40;;;13.80;99.90;;;;;;6191770;23;20410;-85
2022/10/30 05:16:56;;;;;;;12.00;9.70;;;13.80;99.90;;;;;;6193766;23;20387;-85
2022/10/30 05:19:23;;;;;;;10.13;9.07;;;13.80;99.90;;;;;;6192795;23;20745;-83
2022/10/30 05:21:50;;;;;;;12.97;8.73;;;13.70;99.90;;;;;;6193014;23;20409;-85
2022/10/30 05:24:17;;;;;;;10.57;9.40;;;13.70;99.90;;;;;;6193001;23;20913;-85
2022/10/30 05:26:44;;;;;;;14.90;8.77;;;13.70;99.90;;;;;;6193294;23;20451;-83
2022/10/30 05:29:10;;;;;;;8.27;7.47;;;13.70;99.90;;;;;;6192739;23;20420;-85
2022/10/30 05:31:38;;;;;;;8.57;7.70;;;13.60;99.90;;;;;;6193004;23;20410;-85
2022/10/30 05:34:05;;;;;;;15.90;7.37;;;13.60;99.90;;;;;;6193108;23;20414;-84
2022/10/30 05:36:32;;;;;;;10.87;9.40;;;13.60;99.90;;;;;;6194372;23;20613;-83
2022/10/30 05:38:59;;;;;;;8.73;7.77;;;13.60;99.90;;;;;;6194582;23;20805;-85
2022/10/30 05:41:25;;;;;;;10.70;6.73;;;13.50;99.90;;;;;;6193463;23;20500;-85
2022/10/30 05:43:52;;;;;;;9.73;8.10;;;13.50;99.90;;;;;;6194959;23;20927;-84
2022/10/30 05:46:19;;;;;;;9.13;8.30;;;13.50;99.90;;;;;;6194660;23;20453;-85
2022/10/30 05:48:47;;;;;;;9.33;7.73;;;13.50;99.90;;;;;;6193341;23;20420;-85
2022/10/30 05:51:14;;;;;;;8.57;7.67;;;13.50;99.90;;;;;;6192059;23;20414;-85
2022/10/30 05:53:40;;;;;;;18.20;9.00;;;13.40;99.90;;;;;;6191729;23;20740;-85
2022/10/30 05:56:07;;;;;;;10.40;8.90;;;13.40;99.90;;;;;;6190548;23;20428;-85
2022/10/30 05:58:34;;;;;;;10.60;9.40;;;13.40;99.90;;;;;;6190612;23;20410;-83
2022/10/30 06:01:04;;;;;;;10.00;8.60;;;13.30;99.90;;;;;;6190926;23;20409;-84
2022/10/30 06:03:31;;;;;;;8.27;7.47;;;13.40;99.90;;;;;;6191308;23;20398;-84
2022/10/30 06:05:59;;;;;;;8.93;8.17;;;13.40;99.90;;;;;;6190925;23;20431;-84
2022/10/30 06:08:26;;;;;;;11.03;8.47;;;13.40;99.90;;;;;;6190762;23;20453;-85
2022/10/30 06:10:54;;;;;;;11.23;7.77;;;13.40;99.90;;;;;;6190980;23;20417;-84
2022/10/30 06:13:21;;;;;;;9.20;8.03;;;13.40;99.90;;;;;;6191487;23;20409;-84
2022/10/30 06:15:47;;;;;;;10.83;9.73;;;13.40;99.90;;;;;;6191550;23;20448;-85
2022/10/30 06:18:14;;;;;;;8.47;7.40;;;13.40;99.90;;;;;;6191193;23;20416;-85
2022/10/30 06:20:41;;;;;;;12.67;8.20;;;13.40;99.90;;;;;;6191571;23;20412;-84
2022/10/30 06:23:10;;;;;;;9.50;8.47;;;13.40;99.90;;;;;;6193037;23;20416;-85
2022/10/30 06:25:37;;;;;;;11.20;8.10;;;13.40;99.90;;;;;;6191796;23;20435;-85
2022/10/30 06:28:04;;;;;;;11.20;10.00;;;13.40;99.90;;;;;;6190858;23;20464;-83
2022/10/30 06:30:32;;;;;;;12.90;9.47;;;13.50;99.90;;;;;;6190352;23;20418;-85
2022/10/30 06:32:59;;;;;;;9.03;7.60;;;13.50;99.90;;;;;;6191423;23;20413;-84
2022/10/30 06:35:26;;;;;;;12.13;9.17;;;13.50;99.90;;;;;;6190871;23;20432;-82
2022/10/30 06:37:55;;;;;;;9.57;8.13;;;13.50;99.90;;;;;;6191355;23;20511;-84
2022/10/30 06:40:23;;;;;;;13.03;9.40;;;13.50;99.90;;;;;;6190970;23;20477;-85
2022/10/30 06:42:51;;;;;;;10.00;9.00;;;13.50;99.90;;;;;;6191496;23;20410;-83
2022/10/30 07:18:55;;;;;;;7.73;6.30;;;14.40;99.90;;;;;;6091873;23;20409;-84
2022/10/30 07:51:14;;;;;;;9.47;8.60;;;14.90;99.90;;;;;;6146471;23;20428;-84
2022/10/30 07:54:12;;;;;;;8.83;7.93;;;15.00;99.90;;;;;;6182337;23;20428;-83
2022/10/30 07:56:39;;;;;;;10.27;7.90;;;15.10;99.90;;;;;;6204487;23;20574;-83
2022/10/30 07:59:06;;;;;;;15.40;9.33;;;15.10;99.90;;;;;;6204422;23;20476;-83
2022/10/30 08:01:33;;;;;;;10.07;9.00;;;15.10;99.90;;;;;;6201447;23;20478;-84
2022/10/30 08:03:59;;;;;;;8.07;7.27;;;15.20;99.90;;;;;;6207445;23;20468;-84
2022/10/30 08:06:26;;;;;;;12.90;7.30;;;15.30;99.90;;;;;;6210615;23;20470;-84
2022/10/30 08:08:54;;;;;;;9.30;7.00;;;15.40;99.90;;;;;;6208135;23;20466;-83
2022/10/30 08:11:21;;;;;;;12.17;7.63;;;15.50;99.90;;;;;;6210324;23;20415;-85
2022/10/30 08:13:48;;;;;;;8.10;7.40;;;15.60;99.90;;;;;;6209443;23;20485;-84
2022/10/30 08:16:16;;;;;;;13.50;7.90;;;15.70;99.90;;;;;;6204166;23;20426;-83
2022/10/30 08:18:43;;;;;;;8.93;8.03;;;15.80;99.90;;;;;;6200771;23;20438;-83
2022/10/30 08:21:10;;;;;;;8.57;7.67;;;15.90;99.90;;;;;;6201296;23;20501;-83
2022/10/30 08:23:36;;;;;;;7.40;6.80;;;16.10;99.90;;;;;;6202909;23;20438;-83
2022/10/30 08:26:05;;;;;;;9.50;6.67;;;16.20;99.90;;;;;;6199871;23;20813;-83
2022/10/30 08:28:32;;;;;;;11.57;8.63;;;16.30;99.90;;;;;;6203957;23;20470;-82
2022/10/30 08:30:59;;;;;;;8.03;6.67;;;16.30;99.90;;;;;;6204884;23;20426;-83
2022/10/30 08:33:26;;;;;;;8.53;7.73;;;16.40;99.90;;;;;;6204566;23;20459;-82
2022/10/30 08:35:55;;;;;;;9.80;7.30;;;16.50;99.90;;;;;;6201876;23;20465;-84
2022/10/30 08:38:22;;;;;;;9.17;8.37;;;16.50;99.90;;;;;;6203219;23;20414;-83
2022/10/30 08:40:49;;;;;;;7.93;6.20;;;16.60;99.90;;;;;;6199894;23;20426;-83
2022/10/30 08:43:18;;;;;;;9.17;7.53;;;16.70;99.90;;;;;;6197386;23;20505;-83
2022/10/30 08:45:45;;;;;;;8.80;7.00;;;16.80;99.90;;;;;;6196466;23;20437;-83
2022/10/30 08:48:13;;;;;;;8.27;7.47;;;16.90;99.90;;;;;;6198070;23;20448;-84
2022/10/30 08:50:40;;;;;;;6.67;6.07;;;17.00;99.90;;;;;;6198241;23;20494;-84
2022/10/30 08:53:10;;;;;;;11.93;7.93;;;17.10;99.90;;;;;;6193827;23;20445;-83
2022/10/30 08:55:37;;;;;;;8.87;5.83;;;17.10;99.90;;;;;;6193992;23;20499;-83
2022/10/30 08:58:23;;;;;;;8.33;7.40;;;17.30;99.90;;;;;;6195495;23;20413;-81
2022/10/30 09:00:50;;;;;;;7.20;6.60;;;17.40;99.90;;;;;;6190011;23;20482;-83
2022/10/30 09:03:17;;;;;;;8.80;5.70;;;17.50;99.90;;;;;;6189554;23;20503;-83
2022/10/30 09:05:44;;;;;;;11.90;6.77;;;17.60;99.90;;;;;;6192458;23;20438;-82
2022/10/30 09:08:10;;;;;;;6.23;5.50;;;17.70;99.90;;;;;;6189609;23;20457;-84
2022/10/30 09:10:37;;;;;;;11.10;6.53;;;17.80;99.90;;;;;;6192901;23;20419;-84
2022/10/30 09:13:04;;;;;;;9.17;6.20;;;18.00;99.90;;;;;;6192877;23;20485;-85
2022/10/30 09:15:33;;;;;;;7.00;6.07;;;18.10;99.90;;;;;;6191977;23;20531;-86
2022/10/30 09:18:01;;;;;;;6.20;5.60;;;18.20;99.90;;;;;;6191787;23;20415;-84
2022/10/30 09:20:29;;;;;;;6.60;6.00;;;18.20;99.90;;;;;;6189660;23;20934;-85
2022/10/30 09:22:56;;;;;;;6.30;5.70;;;18.40;99.90;;;;;;6191821;23;20417;-84
2022/10/30 09:25:23;;;;;;;5.97;5.10;;;18.50;99.90;;;;;;6190454;23;20444;-87
2022/10/30 09:27:49;;;;;;;8.63;6.00;;;18.60;99.90;;;;;;6190100;23;20459;-85
2022/10/30 09:30:16;;;;;;;9.40;6.07;;;18.60;99.90;;;;;;6193337;23;20437;-85
2022/10/30 09:32:44;;;;;;;11.93;8.50;;;18.80;99.90;;;;;;6192867;23;20420;-84
2022/10/30 09:35:11;;;;;;;6.90;5.90;;;18.90;99.90;;;;;;6193042;23;20437;-84
2022/10/30 09:37:39;;;;;;;7.70;6.20;;;19.00;99.90;;;;;;6192294;23;20417;-83
2022/10/30 09:40:08;;;;;;;11.50;6.40;;;19.10;99.90;;;;;;6193030;23;20413;-85
2022/10/30 09:42:42;;;;;;;7.03;5.97;;;19.20;99.90;;;;;;6192290;23;20488;-86
2022/10/30 09:45:25;;;;;;;6.57;5.97;;;19.40;99.90;;;;;;6191729;23;20429;-86
2022/10/30 09:48:10;;;;;;;7.80;6.80;;;19.50;99.90;;;;;;6186445;23;20754;-85
2022/10/30 09:50:46;;;;;;;8.07;6.97;;;19.60;99.90;;;;;;6185911;23;20405;-85
2022/10/30 10:03:55;;;;;;;7.80;5.47;;;20.40;99.90;;;;;;6037807;23;20399;-85
2022/10/30 10:06:24;;;;;;;5.53;5.00;;;20.70;99.90;;;;;;6049396;23;20439;-83
2022/10/30 10:08:56;;;;;;;6.20;5.30;;;21.00;99.90;;;;;;6052453;23;20474;-81
2022/10/30 10:11:26;;;;;;;9.70;6.40;;;21.20;99.90;;;;;;6197356;23;20475;-84
2022/10/30 10:13:57;;;;;;;8.57;5.80;;;21.40;99.90;;;;;;6192053;23;20400;-86
2022/10/30 10:16:29;;;;;;;8.30;5.73;;;21.70;99.90;;;;;;6192312;23;20872;-85
2022/10/30 10:19:02;;;;;;;5.40;4.87;;;21.90;99.90;;;;;;6191371;23;20893;-85
2022/10/30 10:21:31;;;;;;;7.30;6.00;;;22.10;99.90;;;;;;6192560;23;20399;-84
2022/10/30 10:24:00;;;;;;;5.73;5.20;;;22.30;99.80;;;;;;6192763;23;20496;-84
2022/10/30 10:26:30;;;;;;;8.23;5.07;;;22.60;99.30;;;;;;6192725;23;20436;-84
2022/10/30 10:29:23;;;;;;;5.50;4.93;;;22.80;98.40;;;;;;6192814;23;20430;-85
2022/10/30 10:32:01;;;;;;;6.27;5.10;;;23.10;98.00;;;;;;6191372;23;20876;-84
2022/10/30 10:34:43;;;;;;;5.50;4.80;;;23.40;97.90;;;;;;6190323;23;20471;-84
2022/10/30 10:37:22;;;;;;;5.53;5.03;;;23.80;97.90;;;;;;6193992;23;20400;-84
2022/10/30 10:40:12;;;;;;;6.03;5.43;;;24.40;97.80;;;;;;6189942;23;20406;-83
2022/10/30 10:42:46;;;;;;;5.43;3.90;;;25.10;94.90;;;;;;6191304;23;20419;-84
2022/10/30 10:45:21;;;;;;;5.00;4.50;;;25.70;93.40;;;;;;6191371;23;20439;-82
2022/10/30 10:48:05;;;;;;;7.10;4.87;;;26.40;92.80;;;;;;6188157;23;20433;-84
2022/10/30 10:50:36;;;;;;;4.30;3.90;;;27.20;90.20;;;;;;6191385;23;20398;-85
2022/10/30 10:53:10;;;;;;;6.73;3.90;;;27.80;88.00;;;;;;6195315;23;20390;-81
2022/10/30 10:55:41;;;;;;;5.57;4.40;;;28.50;88.10;;;;;;6196311;23;20437;-82
2022/10/30 10:58:15;;;;;;;6.53;4.30;;;29.30;86.00;;;;;;6197329;23;20422;-81
2022/10/30 11:00:43;;;;;;;8.53;5.03;;;30.10;83.90;;;;;;6198207;23;20399;-82
2022/10/30 11:03:13;;;;;;;7.43;5.27;;;30.80;79.80;;;;;;6197175;23;20497;-81
2022/10/30 11:05:48;;;;;;;6.33;5.00;;;31.40;77.00;;;;;;6196828;23;20428;-81
2022/10/30 11:08:19;;;;;;;4.43;3.97;;;31.60;73.60;;;;;;6197471;23;20512;-80
2022/10/30 11:10:49;;;;;;;10.10;4.63;;;32.20;73.10;;;;;;6196705;23;20899;-84
2022/10/30 11:13:15;;;;;;;9.23;5.07;;;32.70;69.70;;;;;;6197279;23;20402;-80
2022/10/30 11:15:51;;;;;;;13.70;5.53;;;33.00;67.50;;;;;;6198778;23;20441;-80
2022/10/30 11:18:17;;;;;;;6.63;4.40;;;33.00;65.80;;;;;;6197252;23;20397;-82
2022/10/30 11:20:56;;;;;;;7.40;4.67;;;33.20;63.70;;;;;;6191702;23;20409;-78
2022/10/30 11:23:37;;;;;;;5.83;4.33;;;33.50;64.20;;;;;;6191696;23;20402;-79
2022/10/30 11:26:24;;;;;;;4.17;3.77;;;33.70;63.70;;;;;;6190755;23;20530;-80
2022/10/30 11:28:54;;;;;;;10.53;5.00;;;34.00;61.90;;;;;;6190521;23;20443;-80
2022/10/30 11:31:26;;;;;;;4.63;3.97;;;34.20;59.40;;;;;;6187652;23;20405;-79
2022/10/30 11:33:53;;;;;;;8.30;4.90;;;34.40;59.90;;;;;;6186834;23;20397;-78
2022/10/30 11:36:25;;;;;;;5.47;4.90;;;34.60;59.00;;;;;;6187495;23;20433;-79
2022/10/30 11:38:54;;;;;;;5.30;4.70;;;34.70;58.40;;;;;;6187509;23;20398;-79
2022/10/30 11:41:21;;;;;;;5.87;4.57;;;34.80;57.60;;;;;;6187151;23;20410;-79
2022/10/30 11:43:49;;;;;;;7.80;4.20;;;34.90;56.70;;;;;;6187077;23;20410;-78
2022/10/30 11:46:22;;;;;;;4.90;4.40;;;34.90;56.90;;;;;;6186471;23;20436;-78
2022/10/30 11:48:53;;;;;;;5.00;4.50;;;34.70;56.30;;;;;;6190306;23;20469;-79
2022/10/30 11:51:33;;;;;;;4.93;4.13;;;34.50;57.30;;;;;;6191188;23;20489;-80
2022/10/30 11:54:01;;;;;;;8.03;4.50;;;34.10;57.40;;;;;;6190863;23;20919;-79
2022/10/30 11:56:29;;;;;;;6.23;4.57;;;33.90;57.30;;;;;;6190847;23;20957;-79
2022/10/30 11:58:58;;;;;;;6.30;5.03;;;33.50;57.40;;;;;;6190133;23;20404;-79
2022/10/30 12:01:27;;;;;;;5.37;4.17;;;33.00;58.10;;;;;;6190554;23;20411;-78
2022/10/30 12:03:55;;;;;;;6.17;5.00;;;32.50;59.20;;;;;;6190178;23;20440;-79
2022/10/30 12:06:28;;;;;;;5.53;4.40;;;32.00;60.00;;;;;;6190693;23;20427;-79
2022/10/30 12:09:10;;;;;;;5.57;5.07;;;31.60;61.40;;;;;;6190166;23;20434;-79
2022/10/30 12:11:39;;;;;;;9.67;5.10;;;31.10;62.90;;;;;;6190912;23;20397;-79
2022/10/30 12:14:06;;;;;;;5.13;4.60;;;30.70;64.80;;;;;;6190143;23;20420;-79
2022/10/30 12:16:33;;;;;;;5.30;4.20;;;30.40;66.30;;;;;;6190073;23;20437;-79
2022/10/30 12:19:03;;;;;;;4.43;3.97;;;30.20;66.70;;;;;;6189548;23;20508;-79
2022/10/30 12:21:35;;;;;;;6.10;4.70;;;30.30;67.80;;;;;;6190442;23;20406;-79
2022/10/30 12:24:08;;;;;;;7.80;4.63;;;30.40;67.40;;;;;;6190032;23;20450;-78
2022/10/30 12:26:37;;;;;;;5.10;4.70;;;30.60;67.60;;;;;;6189822;23;20429;-79
2022/10/30 12:29:08;;;;;;;5.70;4.97;;;30.70;65.80;;;;;;6188991;23;20448;-79
2022/10/30 12:31:38;;;;;;;6.37;4.60;;;30.80;66.20;;;;;;6188776;23;20687;-79
2022/10/30 12:34:29;;;;;;;5.10;4.63;;;30.90;66.20;;;;;;6190049;23;20404;-79
2022/10/30 12:37:04;;;;;;;7.43;4.20;;;30.90;66.70;;;;;;6190364;23;20397;-80
2022/10/30 12:39:43;;;;;;;5.90;5.00;;;31.10;67.00;;;;;;6190047;23;20391;-80
2022/10/30 12:42:15;;;;;;;6.77;4.50;;;31.30;66.80;;;;;;6189785;23;20394;-79
2022/10/30 12:47:16;;;;;;;9.67;5.00;;;31.40;64.70;;;;;;6111412;23;20506;-85
2022/10/30 12:49:47;;;;;;;16.13;5.30;;;31.50;65.40;;;;;;6108697;23;20520;-83
2022/10/30 12:52:18;;;;;;;5.30;4.40;;;31.50;65.60;;;;;;6106105;23;20392;-84
2022/10/30 12:54:52;;;;;;;8.60;4.90;;;31.50;65.10;;;;;;6105816;23;20408;-84
2022/10/30 12:57:22;;;;;;;5.20;4.30;;;31.50;65.20;;;;;;6105589;23;20493;-83
2022/10/30 13:00:01;;;;;;;5.43;4.10;;;31.70;65.70;;;;;;6106440;23;20461;-83
2022/10/30 13:02:40;;;;;;;4.50;4.10;;;31.70;63.40;;;;;;6107419;23;20397;-84
2022/10/30 13:05:16;;;;;;;6.70;4.93;;;31.70;62.30;;;;;;6106303;23;21000;-83
2022/10/30 13:07:50;;;;;;;7.10;4.30;;;31.80;63.30;;;;;;6106142;23;20393;-83
2022/10/30 13:10:28;;;;;;;5.00;3.73;;;31.80;63.80;;;;;;6105558;23;20399;-83
2022/10/30 13:13:00;;;;;;;7.97;4.87;;;31.80;63.70;;;;;;6105850;23;20427;-83
2022/10/30 13:15:32;;;;;;;5.43;3.80;;;32.00;63.90;;;;;;6105357;23;20520;-83
2022/10/30 13:18:00;;;;;;;4.37;4.00;;;32.10;60.50;;;;;;6104951;23;20422;-84
2022/10/30 13:20:29;;;;;;;4.50;4.10;;;32.40;60.60;;;;;;6105036;23;20458;-83
2022/10/30 13:23:03;;;;;;;4.97;3.77;;;32.60;59.70;;;;;;6106126;23;20738;-83
2022/10/30 13:25:40;;;;;;;7.30;3.73;;;32.70;59.90;;;;;;6105710;23;20433;-85
2022/10/30 13:28:15;;;;;;;5.27;4.10;;;32.70;59.30;;;;;;6105423;23;20459;-84
2022/10/30 13:30:59;;;;;;;5.40;4.53;;;32.80;58.10;;;;;;6105942;23;20399;-83
2022/10/30 13:33:31;;;;;;;4.90;4.30;;;32.80;57.20;;;;;;6105984;23;20787;-83
2022/10/30 13:36:04;;;;;;;7.10;4.60;;;32.70;58.70;;;;;;6106467;23;20458;-83
2022/10/30 13:38:44;;;;;;;4.47;4.07;;;32.70;59.00;;;;;;6107773;23;20442;-84
2022/10/30 13:41:26;;;;;;;9.47;5.00;;;32.60;58.40;;;;;;6107369;23;20395;-84
2022/10/30 13:44:00;;;;;;;3.70;3.40;;;32.70;59.40;;;;;;6108490;23;20400;-84
2022/10/30 13:46:38;;;;;;;4.10;3.47;;;32.80;59.10;;;;;;6107469;23;20437;-83
2022/10/30 13:49:14;;;;;;;5.70;4.70;;;32.90;58.70;;;;;;6107242;23;20473;-85
2022/10/30 13:51:45;;;;;;;5.13;4.37;;;33.10;58.30;;;;;;6107485;23;20404;-83
2022/10/30 13:54:19;;;;;;;5.87;3.90;;;33.20;58.10;;;;;;6107835;23;20431;-84
2022/10/30 13:56:48;;;;;;;6.00;3.70;;;33.30;57.40;;;;;;6106564;23;20449;-84
2022/10/30 13:59:27;;;;;;;5.53;3.87;;;33.30;57.80;;;;;;6106996;23;20455;-83
2022/10/30 14:02:01;;;;;;;4.30;3.47;;;33.50;57.10;;;;;;6107170;23;20431;-83
2022/10/30 14:04:37;;;;;;;4.80;3.60;;;33.60;56.80;;;;;;6106589;23;20389;-84
2022/10/30 14:07:20;;;;;;;6.70;3.97;;;33.60;54.20;;;;;;6106796;23;20412;-84
2022/10/30 14:09:56;;;;;;;5.63;4.43;;;33.20;51.20;;;;;;6108402;23;20390;-85
2022/10/30 14:12:59;;;;;;;5.67;4.20;;;32.90;54.80;;;;;;6109112;23;20402;-83
2022/10/30 14:15:34;;;;;;;7.53;4.80;;;32.30;56.50;;;;;;6088460;23;20447;-84